createdAt,value
2023-04-18T00:03:16.252Z,20.79
2023-04-18T00:08:10.175Z,20.90
2023-04-18T00:13:04.371Z,20.66
2023-04-18T00:17:57.849Z,20.81
2023-04-18T00:22:54.047Z,20.97
2023-04-18T00:27:47.761Z,20.97
2023-04-18T00:32:42.793Z,20.85
2023-04-18T00:37:37.662Z,20.85
2023-04-18T00:42:31.569Z,20.99
2023-04-18T00:47:24.362Z,20.80
2023-04-18T00:52:18.486Z,20.94
2023-04-18T00:57:12.837Z,21.02
2023-04-18T01:02:06.354Z,21.06
2023-04-18T01:07:00.308Z,21.07
2023-04-18T01:11:55.525Z,21.09
2023-04-18T01:16:48.605Z,20.97
2023-04-18T01:21:43.984Z,21.04
2023-04-18T01:26:39.119Z,21.08
2023-04-18T01:31:35.174Z,21.01
2023-04-18T01:36:27.650Z,20.86
2023-04-18T01:41:21.727Z,21.13
2023-04-18T01:46:15.159Z,21.02
2023-04-18T01:51:08.705Z,21.12
2023-04-18T01:56:04.336Z,21.09
2023-04-18T02:01:00.698Z,21.09
2023-04-18T02:05:54.064Z,20.94
2023-04-18T02:10:47.588Z,21.08
2023-04-18T02:15:41.513Z,20.91
2023-04-18T02:20:35.824Z,20.92
2023-04-18T02:25:32.409Z,21.07
2023-04-18T02:30:26.126Z,20.83
2023-04-18T02:35:22.571Z,20.91
2023-04-18T02:40:15.314Z,20.84
2023-04-18T02:45:11.946Z,21.07
2023-04-18T02:50:08.824Z,21.07
2023-04-18T02:55:03.557Z,21.10
2023-04-18T03:00:03.010Z,21.11
2023-04-18T03:05:15.485Z,21.12
2023-04-18T03:10:10.384Z,21.09
2023-04-18T03:15:06.158Z,21.07
2023-04-18T03:19:59.615Z,21.06
2023-04-18T03:24:52.931Z,20.95
2023-04-18T03:29:47.601Z,20.90
2023-04-18T03:34:41.822Z,21.05
2023-04-18T03:39:36.091Z,21.01
2023-04-18T03:44:29.855Z,20.90
2023-04-18T03:49:23.064Z,20.79
2023-04-18T03:54:17.269Z,20.90
2023-04-18T03:59:10.186Z,20.78
2023-04-18T04:04:04.114Z,20.83
2023-04-18T04:08:59.228Z,20.88
2023-04-18T04:13:55.022Z,20.90
2023-04-18T04:18:53.833Z,20.92
2023-04-18T04:23:51.110Z,20.67
2023-04-18T04:29:04.052Z,20.81
2023-04-18T04:33:58.857Z,20.83
2023-04-18T04:38:57.431Z,20.73
2023-04-18T04:43:59.649Z,20.97
2023-04-18T04:48:58.697Z,20.97
2023-04-18T04:53:52.033Z,20.83
2023-04-18T04:58:45.353Z,20.98
2023-04-18T05:03:42.898Z,21.00
2023-04-18T05:08:36.254Z,21.00
2023-04-18T05:13:29.395Z,20.85
2023-04-18T05:18:23.193Z,20.86
2023-04-18T05:23:17.627Z,20.90
2023-04-18T05:28:15.549Z,21.02
2023-04-18T05:33:07.677Z,20.98
2023-04-18T05:38:00.987Z,21.02
2023-04-18T05:42:54.235Z,21.08
2023-04-18T05:47:47.147Z,20.94
2023-04-18T05:52:40.730Z,20.96
2023-04-18T05:57:34.362Z,20.94
2023-04-18T06:02:30.194Z,21.07
2023-04-18T06:07:25.223Z,20.90
2023-04-18T06:12:17.934Z,20.96
2023-04-18T06:17:17.070Z,20.76
2023-04-18T06:22:11.196Z,21.01
2023-04-18T06:27:05.509Z,20.88
2023-04-18T06:31:59.946Z,20.99
2023-04-18T06:36:53.471Z,20.97
2023-04-18T06:41:48.622Z,20.97
2023-04-18T06:46:53.612Z,20.96
2023-04-18T06:51:46.326Z,20.94
2023-04-18T06:56:39.825Z,20.82
2023-04-18T07:01:52.679Z,20.90
2023-04-18T07:06:45.828Z,20.66
2023-04-18T07:11:41.109Z,20.90
2023-04-18T07:16:34.110Z,20.76
2023-04-18T07:21:28.310Z,20.76
2023-04-18T07:26:20.977Z,20.78
2023-04-18T07:31:15.305Z,20.84
2023-04-18T07:36:09.637Z,20.73
2023-04-18T07:41:03.638Z,20.88
2023-04-18T07:45:57.402Z,20.73
2023-04-18T07:50:50.217Z,20.74
2023-04-18T07:56:03.230Z,20.75
2023-04-18T08:00:57.181Z,20.83
2023-04-18T08:05:50.464Z,20.83
2023-04-18T08:10:43.572Z,20.83
2023-04-18T08:15:35.775Z,20.77
2023-04-18T08:20:29.581Z,20.64
2023-04-18T08:25:23.167Z,20.80
2023-04-18T08:30:16.201Z,20.78
2023-04-18T08:35:10.643Z,20.79
2023-04-18T08:40:05.502Z,20.64
2023-04-18T08:45:00.907Z,20.73
2023-04-18T08:49:54.245Z,20.78
2023-04-18T08:54:49.161Z,20.78
2023-04-18T08:59:47.108Z,20.61
2023-04-18T09:04:46.499Z,20.77
2023-04-18T09:09:46.711Z,20.76
2023-04-18T09:14:43.955Z,20.61
2023-04-18T09:19:37.271Z,20.61
2023-04-18T09:24:31.375Z,20.73
2023-04-18T09:29:43.421Z,20.74
2023-04-18T09:34:38.735Z,20.71
2023-04-18T09:39:31.820Z,20.60
2023-04-18T09:44:25.526Z,20.45
2023-04-18T09:49:18.769Z,20.70
2023-04-18T09:54:16.541Z,20.69
2023-04-18T09:59:11.374Z,20.70
2023-04-18T10:04:06.870Z,20.52
2023-04-18T10:09:04.321Z,20.66
2023-04-18T10:14:01.503Z,20.67
2023-04-18T10:18:55.266Z,20.56
2023-04-18T10:23:49.486Z,20.64
2023-04-18T10:28:53.970Z,20.67
2023-04-18T10:39:24.287Z,20.50
2023-04-18T10:44:18.806Z,20.61
2023-04-18T10:49:27.288Z,20.63
2023-04-18T10:54:23.738Z,20.62
2023-04-18T10:59:17.887Z,20.49
2023-04-18T11:04:15.705Z,20.45
2023-04-18T11:09:13.742Z,20.60
2023-04-18T11:14:06.141Z,20.45
2023-04-18T11:19:00.090Z,20.60
2023-04-18T11:23:54.879Z,20.32
2023-04-18T11:28:57.757Z,20.31
2023-04-18T11:33:52.193Z,20.57
2023-04-18T11:38:44.673Z,20.55
2023-04-18T11:43:37.231Z,20.57
2023-04-18T11:48:37.245Z,20.56
2023-04-18T11:53:52.927Z,20.57
2023-04-18T11:58:46.075Z,20.55
2023-04-18T12:03:40.107Z,20.29
2023-04-18T12:08:33.023Z,20.45
2023-04-18T12:13:31.651Z,20.40
2023-04-18T12:18:24.641Z,20.54
2023-04-18T12:23:36.575Z,20.52
2023-04-18T12:28:30.505Z,20.41
2023-04-18T12:33:23.899Z,20.57
2023-04-18T12:38:22.580Z,20.39
2023-04-18T12:43:15.676Z,20.53
2023-04-18T12:48:09.102Z,20.45
2023-04-18T12:53:03.394Z,20.44
2023-04-18T12:57:56.532Z,20.55
2023-04-18T13:02:49.652Z,20.39
2023-04-18T13:07:43.473Z,20.57
2023-04-18T13:12:37.246Z,20.41
2023-04-18T13:17:29.709Z,20.46
2023-04-18T13:22:22.907Z,20.38
2023-04-18T13:27:17.049Z,20.55
2023-04-18T13:32:10.451Z,20.54
2023-04-18T13:37:05.185Z,20.56
2023-04-18T13:41:58.581Z,20.42
2023-04-18T13:46:53.079Z,20.57
2023-04-18T13:51:46.648Z,20.57
2023-04-18T13:56:40.126Z,20.55
2023-04-18T14:01:32.471Z,20.44
2023-04-18T14:06:26.995Z,20.53
2023-04-18T14:11:20.296Z,20.57
2023-04-18T14:16:14.000Z,20.42
2023-04-18T14:21:07.559Z,20.54
2023-04-18T14:26:02.453Z,20.54
2023-04-18T14:30:57.945Z,20.52
2023-04-18T14:35:52.936Z,20.56
2023-04-18T14:40:45.649Z,20.59
2023-04-18T14:45:39.211Z,20.62
2023-04-18T14:50:32.247Z,20.63
2023-04-18T14:55:26.147Z,20.49
2023-04-18T15:00:21.982Z,20.37
2023-04-18T15:05:15.899Z,20.61
2023-04-18T15:10:13.179Z,20.64
2023-04-18T15:15:09.215Z,20.61
2023-04-18T15:20:02.650Z,20.63
2023-04-18T15:24:56.212Z,20.61
2023-04-18T15:29:49.414Z,20.56
2023-04-18T15:34:43.245Z,20.62
2023-04-18T15:39:36.581Z,20.60
2023-04-18T15:44:31.101Z,20.48
2023-04-18T15:49:25.110Z,20.47
2023-04-18T15:54:19.203Z,20.35
2023-04-18T15:59:13.264Z,20.60
2023-04-18T16:04:06.575Z,20.48
2023-04-18T16:09:00.180Z,20.48
2023-04-18T16:14:01.699Z,20.63
2023-04-18T16:18:55.455Z,20.62
2023-04-18T16:23:49.112Z,20.47
2023-04-18T16:28:42.601Z,20.58
2023-04-18T16:33:35.746Z,20.47
2023-04-18T16:38:28.790Z,20.47
2023-04-18T16:43:26.267Z,20.52
2023-04-18T16:48:19.098Z,20.60
2023-04-18T16:53:12.441Z,20.45
2023-04-18T16:58:05.646Z,20.46
2023-04-18T17:02:59.187Z,20.51
2023-04-18T17:07:52.022Z,20.61
2023-04-18T17:12:49.215Z,20.60
2023-04-18T17:17:42.241Z,20.60
2023-04-18T17:22:45.027Z,20.62
2023-04-18T17:27:41.855Z,20.62
2023-04-18T17:32:34.009Z,20.62
2023-04-18T17:37:31.637Z,20.49
2023-04-18T17:42:24.991Z,20.54
2023-04-18T17:47:19.008Z,20.50
2023-04-18T17:52:13.320Z,20.69
2023-04-18T17:57:07.398Z,20.55
2023-04-18T18:02:00.602Z,20.35
2023-04-18T18:06:58.194Z,20.61
2023-04-18T18:11:50.997Z,20.62
2023-04-18T18:16:44.185Z,20.50
2023-04-18T18:21:37.086Z,20.64
2023-04-18T18:26:30.062Z,20.62
2023-04-18T18:31:25.684Z,20.61
2023-04-18T18:36:19.095Z,20.57
2023-04-18T18:41:13.514Z,20.47
2023-04-18T18:46:06.904Z,20.55
2023-04-18T18:50:59.635Z,20.54
2023-04-18T18:55:53.185Z,20.45
2023-04-18T19:00:47.479Z,20.41
2023-04-18T19:05:40.021Z,20.56
2023-04-18T19:10:32.181Z,20.57
2023-04-18T19:15:26.778Z,20.30
2023-04-18T19:20:21.266Z,20.61
2023-04-18T19:25:14.371Z,20.58
2023-04-18T19:30:09.922Z,20.61
2023-04-18T19:35:03.445Z,20.61
2023-04-18T19:39:57.038Z,20.35
2023-04-18T19:44:51.011Z,20.62
2023-04-18T19:49:44.783Z,20.61
2023-04-18T19:54:39.168Z,20.64
2023-04-18T19:59:31.924Z,20.52
2023-04-18T20:04:26.178Z,20.66
2023-04-18T20:09:19.921Z,20.68
2023-04-18T20:14:13.018Z,20.47
2023-04-18T20:19:06.628Z,20.71
2023-04-18T20:24:00.286Z,20.57
2023-04-18T20:28:54.442Z,20.70
2023-04-18T20:33:47.138Z,20.71
2023-04-18T20:38:41.031Z,20.73
2023-04-18T20:43:37.333Z,20.60
2023-04-18T20:48:31.485Z,20.75
2023-04-18T20:53:29.762Z,20.60
2023-04-18T20:58:22.897Z,20.74
2023-04-18T21:03:17.949Z,20.66
2023-04-18T21:08:14.449Z,20.81
2023-04-18T21:13:12.757Z,20.75
2023-04-18T21:18:05.150Z,20.69
2023-04-18T21:22:59.502Z,20.79
2023-04-18T21:27:53.262Z,20.78
2023-04-18T21:32:47.634Z,20.79
2023-04-18T21:37:40.765Z,20.81
2023-04-18T21:42:35.490Z,20.80
2023-04-18T21:47:28.469Z,20.78
2023-04-18T21:52:22.471Z,20.82
2023-04-18T21:57:14.812Z,20.83
2023-04-18T22:02:08.797Z,20.71
2023-04-18T22:07:03.207Z,20.85
2023-04-18T22:11:57.084Z,20.84
2023-04-18T22:16:51.137Z,20.88
2023-04-18T22:21:43.931Z,20.86
2023-04-18T22:26:37.718Z,20.77
2023-04-18T22:31:30.458Z,20.94
2023-04-18T22:36:27.742Z,20.92
2023-04-18T22:41:24.830Z,20.97
2023-04-18T22:46:18.433Z,20.93
2023-04-18T22:51:12.293Z,20.86
2023-04-18T22:56:06.009Z,20.75
2023-04-18T23:01:00.203Z,20.88
2023-04-18T23:05:53.704Z,20.90
2023-04-18T23:10:46.140Z,20.74
2023-04-18T23:15:40.180Z,20.88
2023-04-18T23:20:33.006Z,21.03
2023-04-18T23:25:26.904Z,21.03
2023-04-18T23:30:19.654Z,21.03
2023-04-18T23:35:13.384Z,20.86
2023-04-18T23:40:09.266Z,20.97
2023-04-18T23:45:04.231Z,20.88
2023-04-18T23:49:57.458Z,20.89
2023-04-18T23:54:51.186Z,20.98
2023-04-18T23:59:43.835Z,20.90
